createdAt,value
2022-10-28T00:01:10.662Z,63.60
2022-10-28T00:03:42.391Z,64.10
2022-10-28T00:06:13.014Z,64.40
2022-10-28T00:08:40.151Z,66.10
2022-10-28T00:11:12.550Z,66.90
2022-10-28T00:13:40.522Z,63.40
2022-10-28T00:18:39.765Z,63.70
2022-10-28T00:21:10.623Z,64.50
2022-10-28T00:23:38.350Z,65.40
2022-10-28T00:26:26.780Z,63.70
2022-10-28T00:28:59.469Z,65.00
2022-10-28T00:31:27.953Z,63.70
2022-10-28T00:33:55.045Z,63.70
2022-10-28T00:36:24.303Z,63.80
2022-10-28T00:38:52.765Z,63.80
2022-10-28T00:41:27.655Z,63.90
2022-10-28T00:43:57.011Z,63.80
2022-10-28T00:46:42.643Z,63.70
2022-10-28T00:49:26.141Z,63.70
2022-10-28T00:52:04.041Z,63.90
2022-10-28T00:54:31.510Z,63.80
2022-10-28T00:57:00.944Z,64.30
2022-10-28T00:59:37.508Z,63.80
2022-10-28T01:04:32.347Z,63.80
2022-10-28T01:07:01.151Z,63.80
2022-10-28T01:09:28.152Z,63.80
2022-10-28T01:12:28.409Z,63.80
2022-10-28T01:15:15.069Z,63.80
2022-10-28T01:20:45.329Z,63.90
2022-10-28T01:23:29.678Z,64.00
2022-10-28T01:28:35.191Z,64.80
2022-10-28T01:31:29.882Z,64.10
2022-10-28T01:34:22.136Z,63.30
2022-10-28T01:36:56.485Z,64.30
2022-10-28T01:42:17.307Z,63.40
2022-10-28T01:47:33.667Z,64.50
2022-10-28T01:50:28.775Z,64.70
2022-10-28T01:53:00.108Z,64.60
2022-10-28T01:55:31.937Z,64.60
2022-10-28T01:58:02.412Z,64.30
2022-10-28T02:00:31.095Z,64.50
2022-10-28T02:02:57.967Z,65.20
2022-10-28T02:05:48.475Z,64.90
2022-10-28T02:11:49.659Z,63.40
2022-10-28T02:17:06.686Z,64.60
2022-10-28T02:22:30.550Z,64.70
2022-10-28T02:25:02.837Z,63.20
2022-10-28T02:30:30.413Z,64.70
2022-10-28T02:33:00.084Z,64.40
2022-10-28T02:38:22.938Z,65.10
2022-10-28T02:40:54.492Z,65.20
2022-10-28T02:43:23.559Z,65.40
2022-10-28T02:45:55.361Z,65.40
2022-10-28T02:48:28.508Z,65.30
2022-10-28T02:51:02.487Z,65.30
2022-10-28T02:53:33.336Z,65.30
2022-10-28T02:56:02.387Z,65.50
2022-10-28T03:32:49.479Z,65.50
2022-10-28T03:37:44.318Z,65.50
2022-10-28T03:42:41.682Z,65.90
2022-10-28T03:45:09.638Z,65.60
2022-10-28T03:47:36.666Z,65.60
2022-10-28T03:50:03.634Z,65.80
2022-10-28T04:02:19.220Z,65.90
2022-10-28T04:07:13.235Z,65.40
2022-10-28T04:12:10.642Z,64.90
2022-10-28T04:36:46.252Z,64.90
2022-10-28T04:41:40.402Z,64.90
2022-10-28T04:44:07.073Z,64.50
2022-10-28T05:01:16.932Z,64.30
2022-10-28T05:03:43.731Z,64.60
2022-10-28T05:23:25.755Z,64.60
2022-10-28T05:25:55.543Z,64.70
2022-10-28T05:28:22.249Z,64.50
2022-10-28T05:30:49.005Z,64.40
2022-10-28T05:52:56.708Z,64.70
2022-10-28T05:55:25.543Z,64.90
2022-10-28T06:00:22.994Z,65.00
2022-10-28T06:15:05.558Z,64.80
2022-10-28T06:49:29.296Z,64.30
2022-10-28T07:04:13.791Z,64.00
2022-10-28T07:46:05.497Z,64.60
2022-10-28T07:56:01.148Z,65.10
2022-10-28T08:11:19.034Z,64.60
2022-10-28T08:21:10.051Z,64.10
2022-10-28T08:33:37.930Z,63.00
2022-10-28T08:41:15.862Z,63.50
2022-10-28T08:44:19.609Z,63.40
2022-10-28T08:46:56.468Z,62.60
2022-10-28T08:49:24.658Z,63.40
2022-10-28T08:51:58.298Z,63.30
2022-10-28T08:54:34.188Z,63.50
2022-10-28T08:57:03.507Z,63.40
2022-10-28T09:04:44.409Z,63.90
2022-10-28T09:17:20.227Z,64.30
2022-10-28T09:22:28.976Z,64.40
2022-10-28T09:25:06.695Z,63.30
2022-10-28T09:30:36.051Z,64.50
2022-10-28T09:35:40.051Z,63.80
2022-10-28T09:38:21.948Z,63.70
2022-10-28T09:43:36.002Z,63.70
2022-10-28T09:46:16.209Z,63.30
2022-10-28T09:48:55.666Z,63.00
2022-10-28T09:51:44.931Z,62.30
2022-10-28T09:54:13.671Z,63.30
2022-10-28T09:56:41.415Z,63.40
2022-10-28T09:59:13.283Z,63.70
2022-10-28T10:06:47.097Z,64.30
2022-10-28T10:09:23.545Z,64.20
2022-10-28T10:11:54.090Z,64.20
2022-10-28T10:14:36.769Z,63.20
2022-10-28T10:17:09.880Z,63.70
2022-10-28T10:20:10.584Z,63.70
2022-10-28T10:22:42.564Z,63.10
2022-10-28T10:25:18.371Z,62.30
2022-10-28T10:28:03.537Z,63.70
2022-10-28T10:30:48.155Z,63.50
2022-10-28T10:33:20.091Z,63.40
2022-10-28T10:36:00.174Z,63.30
2022-10-28T10:38:28.827Z,63.00
2022-10-28T10:43:36.486Z,63.40
2022-10-28T10:46:13.784Z,63.40
2022-10-28T10:48:41.483Z,63.50
2022-10-28T10:51:25.866Z,63.40
2022-10-28T10:53:57.473Z,63.90
2022-10-28T10:56:27.285Z,63.80
2022-10-28T10:58:56.849Z,63.90
2022-10-28T11:01:27.255Z,63.60
2022-10-28T11:04:03.235Z,63.60
2022-10-28T11:06:32.723Z,63.60
2022-10-28T11:09:19.033Z,63.40
2022-10-28T11:11:45.828Z,64.10
2022-10-28T11:16:50.477Z,63.10
2022-10-28T11:19:23.015Z,63.50
2022-10-28T11:22:12.253Z,63.90
2022-10-28T11:32:25.977Z,63.70
2022-10-28T11:35:18.369Z,63.60
2022-10-28T11:38:14.185Z,63.60
2022-10-28T11:43:57.650Z,63.70
2022-10-28T11:46:35.033Z,63.60
2022-10-28T11:49:26.361Z,63.60
2022-10-28T11:51:59.028Z,63.10
2022-10-28T11:57:01.573Z,63.80
2022-10-28T11:59:39.967Z,63.80
2022-10-28T12:02:27.923Z,63.90
2022-10-28T12:07:53.263Z,63.60
2022-10-28T12:10:36.712Z,63.80
2022-10-28T12:13:12.448Z,63.20
2022-10-28T12:15:45.203Z,63.90
2022-10-28T12:20:54.169Z,64.50
2022-10-28T12:23:23.323Z,64.90
2022-10-28T12:25:55.289Z,65.40
2022-10-28T12:30:53.446Z,65.70
2022-10-28T12:33:44.447Z,65.60
2022-10-28T12:36:37.042Z,65.00
2022-10-28T12:39:13.378Z,65.20
2022-10-28T12:44:28.081Z,65.00
2022-10-28T12:47:04.561Z,64.90
2022-10-28T12:49:44.809Z,63.30
2022-10-28T12:52:49.803Z,63.90
2022-10-28T12:58:23.699Z,64.30
2022-10-28T13:05:56.684Z,65.30
2022-10-28T13:09:02.962Z,65.30
2022-10-28T13:11:55.583Z,64.10
2022-10-28T13:30:18.200Z,66.30
2022-10-28T13:40:43.581Z,64.40
2022-10-28T13:43:21.673Z,64.40
2022-10-28T13:45:55.305Z,64.40
2022-10-28T13:48:41.154Z,63.60
2022-10-28T13:51:11.715Z,64.20
2022-10-28T13:53:52.904Z,64.20
2022-10-28T13:56:22.596Z,63.70
2022-10-28T13:58:53.615Z,65.40
2022-10-28T14:04:05.594Z,65.90
2022-10-28T14:06:34.955Z,64.40
2022-10-28T14:11:30.285Z,65.00
2022-10-28T14:14:01.603Z,65.10
2022-10-28T14:19:14.986Z,64.10
2022-10-28T14:22:01.549Z,64.40
2022-10-28T14:24:41.857Z,63.90
2022-10-28T14:29:49.045Z,64.50
2022-10-28T14:32:31.218Z,63.70
2022-10-28T14:35:03.822Z,64.60
2022-10-28T14:37:49.105Z,64.70
2022-10-28T14:43:12.061Z,64.90
2022-10-28T14:46:12.849Z,64.80
2022-10-28T14:59:15.011Z,64.40
2022-10-28T15:09:31.330Z,63.60
2022-10-28T15:12:01.818Z,64.90
2022-10-28T15:14:52.781Z,63.60
2022-10-28T15:19:51.384Z,64.40
2022-10-28T15:22:30.690Z,64.40
2022-10-28T15:24:58.855Z,64.30
2022-10-28T15:27:31.909Z,64.30
2022-10-28T15:29:58.934Z,64.30
2022-10-28T15:32:31.695Z,64.20
2022-10-28T15:34:59.220Z,64.20
2022-10-28T15:37:29.560Z,64.30
2022-10-28T15:40:20.635Z,64.00
2022-10-28T15:42:58.394Z,64.20
2022-10-28T15:45:28.122Z,64.10
2022-10-28T15:47:56.939Z,64.10
2022-10-28T15:50:34.973Z,64.30
2022-10-28T15:53:07.484Z,64.30
2022-10-28T15:55:41.708Z,64.50
2022-10-28T15:58:35.502Z,64.40
2022-10-28T16:03:46.904Z,64.20
2022-10-28T16:06:32.525Z,64.20
2022-10-28T16:13:53.786Z,64.20
2022-10-28T16:19:07.845Z,64.10
2022-10-28T16:21:35.868Z,64.20
2022-10-28T16:26:32.684Z,64.10
2022-10-28T16:28:59.497Z,64.20
2022-10-28T16:33:55.341Z,64.00
2022-10-28T16:36:22.121Z,64.10
2022-10-28T16:38:48.957Z,64.00
2022-10-28T16:41:18.364Z,64.10
2022-10-28T16:43:45.897Z,64.10
2022-10-28T16:46:14.021Z,64.10
2022-10-28T16:48:41.189Z,64.10
2022-10-28T16:51:18.044Z,64.20
2022-10-28T16:56:18.290Z,64.20
2022-10-28T16:58:46.107Z,64.30
2022-10-28T17:01:17.940Z,64.10
2022-10-28T17:13:53.030Z,63.80
2022-10-28T17:16:19.696Z,63.70
2022-10-28T17:18:49.605Z,63.80
2022-10-28T17:21:16.364Z,63.80
2022-10-28T17:26:10.410Z,63.80
2022-10-28T17:28:37.048Z,63.70
2022-10-28T17:31:05.582Z,63.90
2022-10-28T17:33:32.592Z,63.80
2022-10-28T17:36:05.068Z,63.80
2022-10-28T17:38:32.100Z,63.80
2022-10-28T17:40:58.830Z,63.80
2022-10-28T17:43:25.542Z,63.80
2022-10-28T17:48:19.455Z,63.90
2022-10-28T17:53:22.116Z,63.80
2022-10-28T17:58:29.045Z,63.50
2022-10-28T18:01:06.671Z,63.50
2022-10-28T18:03:38.241Z,63.60
2022-10-28T18:06:08.076Z,63.60
2022-10-28T18:08:37.307Z,63.70
2022-10-28T18:11:05.708Z,63.80
2022-10-28T18:13:34.459Z,63.90
2022-10-28T18:21:10.812Z,64.40
2022-10-28T18:26:07.242Z,64.30
2022-10-28T18:28:36.090Z,64.40
2022-10-28T18:31:05.446Z,64.40
2022-10-28T18:33:33.097Z,63.90
2022-10-28T18:36:00.689Z,63.90
2022-10-28T18:38:27.472Z,64.30
2022-10-28T18:40:54.509Z,63.30
2022-10-28T18:43:22.798Z,63.60
2022-10-28T18:45:50.545Z,63.70
2022-10-28T18:48:17.961Z,63.70
2022-10-28T18:53:16.080Z,63.80
2022-10-28T19:03:22.717Z,64.00
2022-10-28T19:13:11.003Z,63.60
2022-10-28T19:15:41.980Z,63.50
2022-10-28T19:18:08.787Z,63.20
2022-10-28T19:20:35.470Z,63.20
2022-10-28T19:25:29.553Z,63.10
2022-10-28T19:27:58.626Z,63.10
2022-10-28T19:30:25.363Z,63.20
2022-10-28T19:32:52.453Z,63.10
2022-10-28T19:35:20.171Z,63.10
2022-10-28T19:45:09.394Z,63.10
2022-10-28T19:52:30.637Z,63.20
2022-10-28T19:54:57.392Z,63.10
2022-10-28T20:09:42.418Z,63.10
2022-10-28T20:24:28.001Z,62.90
2022-10-28T20:31:48.985Z,62.90
2022-10-28T20:34:15.689Z,62.80
2022-10-28T20:36:46.307Z,62.90
2022-10-28T20:39:17.981Z,62.90
2022-10-28T20:46:40.391Z,62.70
2022-10-28T20:49:08.872Z,62.70
2022-10-28T20:51:36.579Z,62.90
2022-10-28T20:54:03.419Z,62.80
2022-10-28T20:56:33.441Z,62.70
2022-10-28T21:01:33.756Z,62.70
2022-10-28T21:04:03.198Z,62.70
2022-10-28T21:08:58.461Z,62.80
2022-10-28T21:11:26.196Z,62.80
2022-10-28T21:13:55.453Z,62.80
2022-10-28T21:18:50.269Z,62.80
2022-10-28T21:23:44.962Z,63.10
2022-10-28T21:26:12.621Z,62.70
2022-10-28T21:31:12.046Z,63.10
2022-10-28T21:36:14.796Z,63.10
2022-10-28T21:38:41.729Z,63.20
2022-10-28T21:43:40.496Z,63.20
2022-10-28T21:46:08.113Z,63.10
2022-10-28T21:48:36.825Z,63.00
2022-10-28T21:51:09.948Z,63.10
2022-10-28T21:53:42.049Z,63.10
2022-10-28T21:56:17.775Z,63.20
2022-10-28T21:58:49.694Z,63.30
2022-10-28T22:01:22.770Z,63.40
2022-10-28T22:03:51.460Z,63.40
2022-10-28T22:06:18.204Z,63.60
2022-10-28T22:11:19.421Z,63.50
2022-10-28T22:21:25.278Z,63.50
2022-10-28T22:23:52.806Z,64.50
2022-10-28T22:26:25.826Z,63.80
2022-10-28T22:28:53.167Z,63.80
2022-10-28T22:31:23.192Z,63.90
2022-10-28T22:33:50.357Z,64.00
2022-10-28T22:36:20.062Z,63.90
2022-10-28T22:41:15.085Z,64.10
2022-10-28T22:43:43.178Z,64.20
2022-10-28T22:46:10.959Z,63.60
2022-10-28T22:48:38.092Z,65.00
2022-10-28T22:51:05.309Z,63.90
2022-10-28T22:53:31.985Z,63.70
2022-10-28T22:55:58.803Z,63.80
2022-10-28T22:58:27.412Z,66.30
2022-10-28T23:00:54.285Z,64.60
2022-10-28T23:03:20.967Z,65.60
2022-10-28T23:08:16.235Z,65.10
2022-10-28T23:10:43.046Z,64.30
2022-10-28T23:13:13.589Z,64.20
2022-10-28T23:15:40.455Z,64.40
2022-10-28T23:18:07.200Z,64.40
2022-10-28T23:20:35.689Z,64.40
2022-10-28T23:23:02.769Z,64.40
2022-10-28T23:25:29.579Z,64.60
2022-10-28T23:27:56.613Z,64.00
2022-10-28T23:32:50.674Z,64.60
2022-10-28T23:35:17.434Z,64.70
2022-10-28T23:40:11.632Z,65.00
2022-10-28T23:42:38.382Z,64.30
2022-10-28T23:45:05.798Z,64.70
2022-10-28T23:49:59.872Z,64.60
2022-10-28T23:52:26.556Z,64.40
2022-10-28T23:54:53.272Z,64.50
2022-10-28T23:57:19.960Z,64.30
2022-10-28T23:59:46.679Z,64.60
